sensor_id;sensor_type;location;lat;lon;timestamp;pressure;altitude;pressure_sealevel;temperature;humidity
28606;BME280;46498;49.968;7.754;2023-12-14T00:03:19;-18449.00;;;5.37;100.00
28606;BME280;46498;49.968;7.754;2023-12-14T00:08:20;-18446.00;;;5.28;100.00
28606;BME280;46498;49.968;7.754;2023-12-14T00:13:21;-18444.00;;;5.23;100.00
28606;BME280;46498;49.968;7.754;2023-12-14T00:18:22;-18446.00;;;5.27;100.00
28606;BME280;46498;49.968;7.754;2023-12-14T00:23:23;-18446.00;;;5.28;100.00
28606;BME280;46498;49.968;7.754;2023-12-14T00:28:24;-18443.00;;;5.18;100.00
28606;BME280;46498;49.968;7.754;2023-12-14T00:33:31;-18441.00;;;5.11;100.00
28606;BME280;46498;49.968;7.754;2023-12-14T00:38:33;-18437.00;;;5.00;100.00
28606;BME280;46498;49.968;7.754;2023-12-14T00:43:33;-18433.00;;;4.88;100.00
28606;BME280;46498;49.968;7.754;2023-12-14T00:48:35;-18434.00;;;4.89;100.00
28606;BME280;46498;49.968;7.754;2023-12-14T00:53:35;-18432.00;;;4.84;100.00
28606;BME280;46498;49.968;7.754;2023-12-14T00:58:36;-18430.00;;;4.79;100.00
28606;BME280;46498;49.968;7.754;2023-12-14T01:03:37;-18433.00;;;4.88;100.00
28606;BME280;46498;49.968;7.754;2023-12-14T01:08:38;-18434.00;;;4.91;100.00
28606;BME280;46498;49.968;7.754;2023-12-14T01:13:39;-18435.00;;;4.94;100.00
28606;BME280;46498;49.968;7.754;2023-12-14T01:18:40;-18431.00;;;4.83;100.00
28606;BME280;46498;49.968;7.754;2023-12-14T01:23:41;-18429.00;;;4.74;100.00
28606;BME280;46498;49.968;7.754;2023-12-14T01:28:42;-18429.00;;;4.74;100.00
28606;BME280;46498;49.968;7.754;2023-12-14T01:33:43;-18430.00;;;4.80;100.00
28606;BME280;46498;49.968;7.754;2023-12-14T01:38:46;-18428.00;;;4.72;100.00
28606;BME280;46498;49.968;7.754;2023-12-14T01:43:47;-18430.00;;;4.77;100.00
28606;BME280;46498;49.968;7.754;2023-12-14T01:48:48;-18431.00;;;4.81;100.00
28606;BME280;46498;49.968;7.754;2023-12-14T01:53:49;-18430.00;;;4.80;100.00
28606;BME280;46498;49.968;7.754;2023-12-14T01:58:50;-18429.00;;;4.75;100.00
28606;BME280;46498;49.968;7.754;2023-12-14T02:03:52;-18426.00;;;4.65;100.00
28606;BME280;46498;49.968;7.754;2023-12-14T02:08:53;-18424.00;;;4.60;100.00
28606;BME280;46498;49.968;7.754;2023-12-14T02:13:54;-18426.00;;;4.67;100.00
28606;BME280;46498;49.968;7.754;2023-12-14T02:18:55;-18429.00;;;4.75;100.00
28606;BME280;46498;49.968;7.754;2023-12-14T02:23:56;-18430.00;;;4.79;100.00
28606;BME280;46498;49.968;7.754;2023-12-14T02:28:57;-18429.00;;;4.74;100.00
28606;BME280;46498;49.968;7.754;2023-12-14T02:33:58;-18432.00;;;4.86;100.00
28606;BME280;46498;49.968;7.754;2023-12-14T02:38:59;-18437.00;;;4.99;100.00
28606;BME280;46498;49.968;7.754;2023-12-14T02:43:59;-18438.00;;;5.02;100.00
28606;BME280;46498;49.968;7.754;2023-12-14T02:49:01;-18439.00;;;5.08;100.00
28606;BME280;46498;49.968;7.754;2023-12-14T02:54:03;-18443.00;;;5.19;100.00
28606;BME280;46498;49.968;7.754;2023-12-14T02:59:03;-18446.00;;;5.27;100.00
28606;BME280;46498;49.968;7.754;2023-12-14T03:04:06;-18446.00;;;5.28;100.00
28606;BME280;46498;49.968;7.754;2023-12-14T03:09:07;-18447.00;;;5.31;100.00
28606;BME280;46498;49.968;7.754;2023-12-14T03:14:08;-18447.00;;;5.30;100.00
28606;BME280;46498;49.968;7.754;2023-12-14T03:19:09;-18447.00;;;5.31;100.00
28606;BME280;46498;49.968;7.754;2023-12-14T03:24:10;-18444.00;;;5.23;100.00
28606;BME280;46498;49.968;7.754;2023-12-14T03:29:11;-18443.00;;;5.18;100.00
28606;BME280;46498;49.968;7.754;2023-12-14T03:34:12;-18442.00;;;5.17;100.00
28606;BME280;46498;49.968;7.754;2023-12-14T03:39:13;-18440.00;;;5.11;100.00
28606;BME280;46498;49.968;7.754;2023-12-14T03:44:14;-18442.00;;;5.15;100.00
28606;BME280;46498;49.968;7.754;2023-12-14T03:49:16;-18444.00;;;5.21;100.00
28606;BME280;46498;49.968;7.754;2023-12-14T03:54:17;-18439.00;;;5.08;100.00
28606;BME280;46498;49.968;7.754;2023-12-14T03:59:17;-18438.00;;;5.04;100.00
28606;BME280;46498;49.968;7.754;2023-12-14T04:04:18;-18437.00;;;5.01;100.00
28606;BME280;46498;49.968;7.754;2023-12-14T04:09:19;-18433.00;;;4.89;100.00
28606;BME280;46498;49.968;7.754;2023-12-14T04:14:20;-18430.00;;;4.78;100.00
28606;BME280;46498;49.968;7.754;2023-12-14T04:19:21;-18431.00;;;4.83;100.00
28606;BME280;46498;49.968;7.754;2023-12-14T04:24:22;-18431.00;;;4.83;100.00
28606;BME280;46498;49.968;7.754;2023-12-14T04:29:23;-18429.00;;;4.76;100.00
28606;BME280;46498;49.968;7.754;2023-12-14T04:34:24;-18428.00;;;4.72;100.00
28606;BME280;46498;49.968;7.754;2023-12-14T04:39:25;-18432.00;;;4.86;100.00
28606;BME280;46498;49.968;7.754;2023-12-14T04:44:26;-18434.00;;;4.90;100.00
28606;BME280;46498;49.968;7.754;2023-12-14T04:49:28;-18434.00;;;4.92;100.00
28606;BME280;46498;49.968;7.754;2023-12-14T04:54:28;-18438.00;;;5.03;100.00
28606;BME280;46498;49.968;7.754;2023-12-14T04:59:29;-18439.00;;;5.07;100.00
28606;BME280;46498;49.968;7.754;2023-12-14T05:04:30;-18437.00;;;4.99;100.00
28606;BME280;46498;49.968;7.754;2023-12-14T05:09:31;-18436.00;;;4.97;100.00
28606;BME280;46498;49.968;7.754;2023-12-14T05:14:32;-18437.00;;;4.99;100.00
28606;BME280;46498;49.968;7.754;2023-12-14T05:19:33;-18442.00;;;5.16;100.00
28606;BME280;46498;49.968;7.754;2023-12-14T05:24:38;-18444.00;;;5.21;100.00
28606;BME280;46498;49.968;7.754;2023-12-14T05:29:38;-18444.00;;;5.23;100.00
28606;BME280;46498;49.968;7.754;2023-12-14T05:34:39;-18447.00;;;5.32;100.00
28606;BME280;46498;49.968;7.754;2023-12-14T05:39:43;-18444.00;;;5.23;100.00
28606;BME280;46498;49.968;7.754;2023-12-14T05:44:46;-18445.00;;;5.24;100.00
28606;BME280;46498;49.968;7.754;2023-12-14T05:49:47;-18445.00;;;5.26;100.00
28606;BME280;46498;49.968;7.754;2023-12-14T05:54:48;-18446.00;;;5.28;100.00
28606;BME280;46498;49.968;7.754;2023-12-14T05:59:51;-18445.00;;;5.26;100.00
28606;BME280;46498;49.968;7.754;2023-12-14T06:04:52;-18449.00;;;5.37;100.00
28606;BME280;46498;49.968;7.754;2023-12-14T06:09:53;-18448.00;;;5.35;100.00
28606;BME280;46498;49.968;7.754;2023-12-14T06:14:54;-18449.00;;;5.37;100.00
28606;BME280;46498;49.968;7.754;2023-12-14T06:19:55;-18449.00;;;5.39;100.00
28606;BME280;46498;49.968;7.754;2023-12-14T06:24:56;-18451.00;;;5.44;100.00
28606;BME280;46498;49.968;7.754;2023-12-14T06:29:57;-18450.00;;;5.40;100.00
28606;BME280;46498;49.968;7.754;2023-12-14T06:34:58;-18451.00;;;5.43;100.00
28606;BME280;46498;49.968;7.754;2023-12-14T06:39:59;-18449.00;;;5.39;100.00
28606;BME280;46498;49.968;7.754;2023-12-14T06:45:03;-18449.00;;;5.39;100.00
28606;BME280;46498;49.968;7.754;2023-12-14T06:50:05;-18449.00;;;5.39;100.00
28606;BME280;46498;49.968;7.754;2023-12-14T06:55:07;-18448.00;;;5.35;100.00
28606;BME280;46498;49.968;7.754;2023-12-14T07:00:09;-18451.00;;;5.43;100.00
28606;BME280;46498;49.968;7.754;2023-12-14T07:05:10;-18450.00;;;5.40;100.00
28606;BME280;46498;49.968;7.754;2023-12-14T07:10:11;-18448.00;;;5.36;100.00
28606;BME280;46498;49.968;7.754;2023-12-14T07:15:12;-18448.00;;;5.36;100.00
28606;BME280;46498;49.968;7.754;2023-12-14T07:20:13;-18449.00;;;5.39;100.00
28606;BME280;46498;49.968;7.754;2023-12-14T07:25:14;-18448.00;;;5.36;100.00
28606;BME280;46498;49.968;7.754;2023-12-14T07:30:15;-18448.00;;;5.36;100.00
28606;BME280;46498;49.968;7.754;2023-12-14T07:35:16;-18451.00;;;5.45;100.00
28606;BME280;46498;49.968;7.754;2023-12-14T07:40:17;-18452.00;;;5.47;100.00
28606;BME280;46498;49.968;7.754;2023-12-14T07:45:18;-18450.00;;;5.42;100.00
28606;BME280;46498;49.968;7.754;2023-12-14T07:50:19;-18450.00;;;5.41;100.00
28606;BME280;46498;49.968;7.754;2023-12-14T07:55:24;-18452.00;;;5.47;100.00
28606;BME280;46498;49.968;7.754;2023-12-14T08:00:25;-18454.00;;;5.52;100.00
28606;BME280;46498;49.968;7.754;2023-12-14T08:05:26;-18454.00;;;5.55;100.00
28606;BME280;46498;49.968;7.754;2023-12-14T08:10:27;-18456.00;;;5.59;100.00
28606;BME280;46498;49.968;7.754;2023-12-14T08:15:28;-18456.00;;;5.61;100.00
28606;BME280;46498;49.968;7.754;2023-12-14T08:20:29;-18460.00;;;5.74;100.00
28606;BME280;46498;49.968;7.754;2023-12-14T08:25:30;-18457.00;;;5.63;100.00
28606;BME280;46498;49.968;7.754;2023-12-14T08:30:31;-18456.00;;;5.59;100.00
28606;BME280;46498;49.968;7.754;2023-12-14T08:35:32;-18455.00;;;5.57;100.00
28606;BME280;46498;49.968;7.754;2023-12-14T08:40:33;-18457.00;;;5.63;100.00
28606;BME280;46498;49.968;7.754;2023-12-14T08:45:34;-18453.00;;;5.51;100.00
28606;BME280;46498;49.968;7.754;2023-12-14T08:50:35;-18454.00;;;5.53;100.00
28606;BME280;46498;49.968;7.754;2023-12-14T08:55:35;-18453.00;;;5.51;100.00
28606;BME280;46498;49.968;7.754;2023-12-14T09:00:36;-18449.00;;;5.37;100.00
28606;BME280;46498;49.968;7.754;2023-12-14T09:05:37;-18451.00;;;5.44;100.00
28606;BME280;46498;49.968;7.754;2023-12-14T09:10:43;-18451.00;;;5.43;100.00
28606;BME280;46498;49.968;7.754;2023-12-14T09:15:43;-18451.00;;;5.45;100.00
28606;BME280;46498;49.968;7.754;2023-12-14T09:20:45;-18452.00;;;5.48;100.00
28606;BME280;46498;49.968;7.754;2023-12-14T09:25:46;-18459.00;;;5.69;100.00
28606;BME280;46498;49.968;7.754;2023-12-14T09:30:47;-18466.00;;;5.90;100.00
28606;BME280;46498;49.968;7.754;2023-12-14T09:35:48;-18467.00;;;5.95;100.00
28606;BME280;46498;49.968;7.754;2023-12-14T09:40:49;-18466.00;;;5.92;100.00
28606;BME280;46498;49.968;7.754;2023-12-14T09:45:50;-18457.00;;;5.62;100.00
28606;BME280;46498;49.968;7.754;2023-12-14T09:50:52;-18455.00;;;5.58;100.00
28606;BME280;46498;49.968;7.754;2023-12-14T09:55:53;-18456.00;;;5.60;100.00
28606;BME280;46498;49.968;7.754;2023-12-14T10:00:54;-18458.00;;;5.66;100.00
28606;BME280;46498;49.968;7.754;2023-12-14T10:05:58;-18458.00;;;5.65;100.00
28606;BME280;46498;49.968;7.754;2023-12-14T10:11:03;-18457.00;;;5.64;100.00
28606;BME280;46498;49.968;7.754;2023-12-14T10:16:49;-18459.00;;;5.69;100.00
28606;BME280;46498;49.968;7.754;2023-12-14T10:21:50;-18462.00;;;5.77;100.00
28606;BME280;46498;49.968;7.754;2023-12-14T10:26:51;-18462.00;;;5.77;100.00
28606;BME280;46498;49.968;7.754;2023-12-14T10:31:54;-18464.00;;;5.86;100.00
28606;BME280;46498;49.968;7.754;2023-12-14T10:36:55;-18465.00;;;5.88;100.00
28606;BME280;46498;49.968;7.754;2023-12-14T10:41:56;-18464.00;;;5.86;100.00
28606;BME280;46498;49.968;7.754;2023-12-14T10:47:12;-18465.00;;;5.88;100.00
28606;BME280;46498;49.968;7.754;2023-12-14T10:52:17;-18459.00;;;5.68;100.00
28606;BME280;46498;49.968;7.754;2023-12-14T10:57:19;-18463.00;;;5.81;100.00
28606;BME280;46498;49.968;7.754;2023-12-14T11:02:20;-18465.00;;;5.87;100.00
28606;BME280;46498;49.968;7.754;2023-12-14T11:07:43;-18467.00;;;5.95;100.00
28606;BME280;46498;49.968;7.754;2023-12-14T11:12:54;-18471.00;;;6.07;100.00
28606;BME280;46498;49.968;7.754;2023-12-14T11:19:47;-18489.00;;;6.62;100.00
28606;BME280;46498;49.968;7.754;2023-12-14T11:24:52;-18482.00;;;6.42;100.00
28606;BME280;46498;49.968;7.754;2023-12-14T11:29:54;-18472.00;;;6.09;100.00
28606;BME280;46498;49.968;7.754;2023-12-14T11:34:55;-18469.00;;;6.00;100.00
28606;BME280;46498;49.968;7.754;2023-12-14T11:39:57;-18466.00;;;5.90;100.00
28606;BME280;46498;49.968;7.754;2023-12-14T11:44:58;-18462.00;;;5.78;100.00
28606;BME280;46498;49.968;7.754;2023-12-14T11:49:59;-18460.00;;;5.74;100.00
28606;BME280;46498;49.968;7.754;2023-12-14T11:55:00;-18464.00;;;5.86;100.00
28606;BME280;46498;49.968;7.754;2023-12-14T12:00:01;-18465.00;;;5.89;100.00
28606;BME280;46498;49.968;7.754;2023-12-14T12:05:05;-18467.00;;;5.96;100.00
28606;BME280;46498;49.968;7.754;2023-12-14T12:10:07;-18466.00;;;5.91;100.00
28606;BME280;46498;49.968;7.754;2023-12-14T12:15:09;-18468.00;;;5.96;100.00
28606;BME280;46498;49.968;7.754;2023-12-14T12:20:10;-18466.00;;;5.92;100.00
28606;BME280;46498;49.968;7.754;2023-12-14T12:25:11;-18463.00;;;5.83;100.00
28606;BME280;46498;49.968;7.754;2023-12-14T12:30:16;-18461.00;;;5.75;100.00
28606;BME280;46498;49.968;7.754;2023-12-14T12:35:20;-18463.00;;;5.80;100.00
28606;BME280;46498;49.968;7.754;2023-12-14T12:40:25;-18461.00;;;5.75;100.00
28606;BME280;46498;49.968;7.754;2023-12-14T12:45:27;-18460.00;;;5.74;100.00
28606;BME280;46498;49.968;7.754;2023-12-14T12:50:28;-18490.00;;;6.66;100.00
28606;BME280;46498;49.968;7.754;2023-12-14T12:55:29;-18527.00;;;7.82;100.00
28606;BME280;46498;49.968;7.754;2023-12-14T13:00:30;-18539.00;;;8.21;100.00
28606;BME280;46498;49.968;7.754;2023-12-14T13:05:31;-18524.00;;;7.73;100.00
28606;BME280;46498;49.968;7.754;2023-12-14T13:10:32;-18514.00;;;7.42;100.00
28606;BME280;46498;49.968;7.754;2023-12-14T13:15:34;-18500.00;;;6.99;100.00
28606;BME280;46498;49.968;7.754;2023-12-14T13:20:36;-18491.00;;;6.69;100.00
28606;BME280;46498;49.968;7.754;2023-12-14T13:25:37;-18487.00;;;6.56;100.00
28606;BME280;46498;49.968;7.754;2023-12-14T13:30:38;-18475.00;;;6.19;100.00
28606;BME280;46498;49.968;7.754;2023-12-14T13:35:39;-18471.00;;;6.07;100.00
28606;BME280;46498;49.968;7.754;2023-12-14T13:40:40;-18470.00;;;6.05;100.00
28606;BME280;46498;49.968;7.754;2023-12-14T13:45:41;-18470.00;;;6.04;100.00
28606;BME280;46498;49.968;7.754;2023-12-14T13:50:44;-18463.00;;;5.80;100.00
28606;BME280;46498;49.968;7.754;2023-12-14T13:55:45;-18463.00;;;5.82;100.00
28606;BME280;46498;49.968;7.754;2023-12-14T14:00:47;-18457.00;;;5.64;100.00
28606;BME280;46498;49.968;7.754;2023-12-14T14:05:48;-18452.00;;;5.48;100.00
28606;BME280;46498;49.968;7.754;2023-12-14T14:10:49;-18453.00;;;5.51;100.00
28606;BME280;46498;49.968;7.754;2023-12-14T14:15:50;-18451.00;;;5.43;100.00
28606;BME280;46498;49.968;7.754;2023-12-14T14:20:51;-18451.00;;;5.44;100.00
28606;BME280;46498;49.968;7.754;2023-12-14T14:25:52;-18448.00;;;5.34;100.00
28606;BME280;46498;49.968;7.754;2023-12-14T14:30:56;-18445.00;;;5.24;100.00
28606;BME280;46498;49.968;7.754;2023-12-14T14:35:57;-18442.00;;;5.17;100.00
28606;BME280;46498;49.968;7.754;2023-12-14T14:40:58;-18440.00;;;5.10;100.00
28606;BME280;46498;49.968;7.754;2023-12-14T14:45:59;-18437.00;;;5.01;100.00
28606;BME280;46498;49.968;7.754;2023-12-14T14:51:01;-18437.00;;;4.99;100.00
28606;BME280;46498;49.968;7.754;2023-12-14T14:56:02;-18440.00;;;5.11;100.00
28606;BME280;46498;49.968;7.754;2023-12-14T15:01:04;-18437.00;;;4.99;100.00
28606;BME280;46498;49.968;7.754;2023-12-14T15:06:05;-18432.00;;;4.85;100.00
28606;BME280;46498;49.968;7.754;2023-12-14T15:11:06;-18432.00;;;4.85;100.00
28606;BME280;46498;49.968;7.754;2023-12-14T15:16:10;-18434.00;;;4.90;100.00
28606;BME280;46498;49.968;7.754;2023-12-14T15:21:12;-18427.00;;;4.70;100.00
28606;BME280;46498;49.968;7.754;2023-12-14T15:26:17;-18424.00;;;4.58;100.00
28606;BME280;46498;49.968;7.754;2023-12-14T15:31:20;-18423.00;;;4.56;100.00
28606;BME280;46498;49.968;7.754;2023-12-14T15:36:22;-18417.00;;;4.39;100.00
28606;BME280;46498;49.968;7.754;2023-12-14T15:41:23;-18418.00;;;4.41;100.00
28606;BME280;46498;49.968;7.754;2023-12-14T15:46:24;-18413.00;;;4.26;100.00
28606;BME280;46498;49.968;7.754;2023-12-14T15:51:24;-18407.00;;;4.07;100.00
28606;BME280;46498;49.968;7.754;2023-12-14T15:56:25;-18406.00;;;4.04;100.00
28606;BME280;46498;49.968;7.754;2023-12-14T16:01:30;-18410.00;;;4.14;100.00
28606;BME280;46498;49.968;7.754;2023-12-14T16:06:31;-18408.00;;;4.09;100.00
28606;BME280;46498;49.968;7.754;2023-12-14T16:11:32;-18405.00;;;3.99;100.00
28606;BME280;46498;49.968;7.754;2023-12-14T16:16:33;-18408.00;;;4.09;100.00
28606;BME280;46498;49.968;7.754;2023-12-14T16:21:34;-18413.00;;;4.26;100.00
28606;BME280;46498;49.968;7.754;2023-12-14T16:26:37;-18411.00;;;4.20;100.00
28606;BME280;46498;49.968;7.754;2023-12-14T16:31:42;-18412.00;;;4.23;100.00
28606;BME280;46498;49.968;7.754;2023-12-14T16:36:47;-18413.00;;;4.24;100.00
28606;BME280;46498;49.968;7.754;2023-12-14T16:41:48;-18408.00;;;4.11;100.00
28606;BME280;46498;49.968;7.754;2023-12-14T16:46:49;-18406.00;;;4.04;100.00
28606;BME280;46498;49.968;7.754;2023-12-14T16:51:50;-18404.00;;;3.98;100.00
28606;BME280;46498;49.968;7.754;2023-12-14T16:56:50;-18406.00;;;4.02;100.00
28606;BME280;46498;49.968;7.754;2023-12-14T17:01:51;-18408.00;;;4.09;100.00
28606;BME280;46498;49.968;7.754;2023-12-14T17:06:52;-18411.00;;;4.18;100.00
28606;BME280;46498;49.968;7.754;2023-12-14T17:11:53;-18405.00;;;3.99;100.00
28606;BME280;46498;49.968;7.754;2023-12-14T17:16:54;-18404.00;;;3.96;100.00
28606;BME280;46498;49.968;7.754;2023-12-14T17:21:55;-18405.00;;;3.99;100.00
28606;BME280;46498;49.968;7.754;2023-12-14T17:26:57;-18403.00;;;3.94;100.00
28606;BME280;46498;49.968;7.754;2023-12-14T17:31:58;-18396.00;;;3.72;100.00
28606;BME280;46498;49.968;7.754;2023-12-14T17:36:59;-18394.00;;;3.66;100.00
28606;BME280;46498;49.968;7.754;2023-12-14T17:42:00;-18397.00;;;3.76;100.00
28606;BME280;46498;49.968;7.754;2023-12-14T17:47:01;-18399.00;;;3.80;100.00
28606;BME280;46498;49.968;7.754;2023-12-14T17:52:03;-18397.00;;;3.74;100.00
28606;BME280;46498;49.968;7.754;2023-12-14T17:57:05;-18399.00;;;3.80;100.00
28606;BME280;46498;49.968;7.754;2023-12-14T18:02:06;-18399.00;;;3.82;100.00
28606;BME280;46498;49.968;7.754;2023-12-14T18:07:07;-18397.00;;;3.74;100.00
28606;BME280;46498;49.968;7.754;2023-12-14T18:12:08;-18397.00;;;3.74;100.00
28606;BME280;46498;49.968;7.754;2023-12-14T18:17:09;-18397.00;;;3.75;100.00
28606;BME280;46498;49.968;7.754;2023-12-14T18:22:10;-18397.00;;;3.74;100.00
28606;BME280;46498;49.968;7.754;2023-12-14T18:27:11;-18396.00;;;3.71;100.00
28606;BME280;46498;49.968;7.754;2023-12-14T18:32:12;-18396.00;;;3.73;100.00
28606;BME280;46498;49.968;7.754;2023-12-14T18:37:13;-18390.00;;;3.54;100.00
28606;BME280;46498;49.968;7.754;2023-12-14T18:42:15;-18396.00;;;3.72;100.00
28606;BME280;46498;49.968;7.754;2023-12-14T18:47:16;-18395.00;;;3.68;100.00
28606;BME280;46498;49.968;7.754;2023-12-14T18:52:17;-18393.00;;;3.62;100.00
28606;BME280;46498;49.968;7.754;2023-12-14T18:57:20;-18395.00;;;3.68;100.00
28606;BME280;46498;49.968;7.754;2023-12-14T19:02:22;-18393.00;;;3.62;100.00
28606;BME280;46498;49.968;7.754;2023-12-14T19:07:26;-18390.00;;;3.54;100.00
28606;BME280;46498;49.968;7.754;2023-12-14T19:12:26;-18388.00;;;3.47;100.00
28606;BME280;46498;49.968;7.754;2023-12-14T19:17:27;-18390.00;;;3.52;100.00
28606;BME280;46498;49.968;7.754;2023-12-14T19:22:29;-18388.00;;;3.45;100.00
28606;BME280;46498;49.968;7.754;2023-12-14T19:27:30;-18387.00;;;3.42;100.00
28606;BME280;46498;49.968;7.754;2023-12-14T19:32:37;-18387.00;;;3.44;100.00
28606;BME280;46498;49.968;7.754;2023-12-14T19:37:40;-18390.00;;;3.53;100.00
28606;BME280;46498;49.968;7.754;2023-12-14T19:42:41;-18389.00;;;3.49;100.00
28606;BME280;46498;49.968;7.754;2023-12-14T19:47:42;-18387.00;;;3.44;100.00
28606;BME280;46498;49.968;7.754;2023-12-14T19:52:44;-18388.00;;;3.46;100.00
28606;BME280;46498;49.968;7.754;2023-12-14T19:57:45;-18385.00;;;3.38;100.00
28606;BME280;46498;49.968;7.754;2023-12-14T20:02:50;-18386.00;;;3.41;100.00
28606;BME280;46498;49.968;7.754;2023-12-14T20:07:51;-18386.00;;;3.39;100.00
28606;BME280;46498;49.968;7.754;2023-12-14T20:12:52;-18383.00;;;3.31;100.00
28606;BME280;46498;49.968;7.754;2023-12-14T20:17:54;-18381.00;;;3.23;100.00
28606;BME280;46498;49.968;7.754;2023-12-14T20:22:55;-18380.00;;;3.21;100.00
28606;BME280;46498;49.968;7.754;2023-12-14T20:27:57;-18377.00;;;3.13;100.00
28606;BME280;46498;49.968;7.754;2023-12-14T20:32:58;-18377.00;;;3.11;100.00
28606;BME280;46498;49.968;7.754;2023-12-14T20:38:03;-18377.00;;;3.12;100.00
28606;BME280;46498;49.968;7.754;2023-12-14T20:43:07;-18374.00;;;3.03;100.00
28606;BME280;46498;49.968;7.754;2023-12-14T20:48:08;-18375.00;;;3.07;100.00
28606;BME280;46498;49.968;7.754;2023-12-14T20:53:09;-18376.00;;;3.08;100.00
28606;BME280;46498;49.968;7.754;2023-12-14T20:58:10;-18375.00;;;3.06;100.00
28606;BME280;46498;49.968;7.754;2023-12-14T21:03:13;-18375.00;;;3.04;100.00
28606;BME280;46498;49.968;7.754;2023-12-14T21:08:15;-18374.00;;;3.01;100.00
28606;BME280;46498;49.968;7.754;2023-12-14T21:13:16;-18382.00;;;3.27;100.00
28606;BME280;46498;49.968;7.754;2023-12-14T21:18:17;-18373.00;;;2.99;100.00
28606;BME280;46498;49.968;7.754;2023-12-14T21:23:18;-18372.00;;;2.95;100.00
28606;BME280;46498;49.968;7.754;2023-12-14T21:28:19;-18371.00;;;2.93;100.00
28606;BME280;46498;49.968;7.754;2023-12-14T21:33:20;-18374.00;;;3.01;100.00
28606;BME280;46498;49.968;7.754;2023-12-14T21:38:21;-18372.00;;;2.95;100.00
28606;BME280;46498;49.968;7.754;2023-12-14T21:43:23;-18373.00;;;2.99;100.00
28606;BME280;46498;49.968;7.754;2023-12-14T21:48:24;-18373.00;;;3.00;100.00
28606;BME280;46498;49.968;7.754;2023-12-14T21:53:25;-18374.00;;;3.02;100.00
28606;BME280;46498;49.968;7.754;2023-12-14T21:58:26;-18373.00;;;2.98;100.00
28606;BME280;46498;49.968;7.754;2023-12-14T22:03:27;-18373.00;;;3.01;100.00
28606;BME280;46498;49.968;7.754;2023-12-14T22:08:28;-18373.00;;;3.00;100.00
28606;BME280;46498;49.968;7.754;2023-12-14T22:13:30;-18369.00;;;2.88;100.00
28606;BME280;46498;49.968;7.754;2023-12-14T22:18:31;-18370.00;;;2.89;100.00
28606;BME280;46498;49.968;7.754;2023-12-14T22:23:32;-18367.00;;;2.82;100.00
28606;BME280;46498;49.968;7.754;2023-12-14T22:28:33;-18368.00;;;2.83;100.00
28606;BME280;46498;49.968;7.754;2023-12-14T22:33:34;-18363.00;;;2.68;100.00
28606;BME280;46498;49.968;7.754;2023-12-14T22:38:35;-18364.00;;;2.73;100.00
28606;BME280;46498;49.968;7.754;2023-12-14T22:43:36;-18363.00;;;2.67;100.00
28606;BME280;46498;49.968;7.754;2023-12-14T22:48:37;-18365.00;;;2.73;100.00
28606;BME280;46498;49.968;7.754;2023-12-14T22:53:38;-18367.00;;;2.81;100.00
28606;BME280;46498;49.968;7.754;2023-12-14T22:58:39;-18371.00;;;2.94;100.00
28606;BME280;46498;49.968;7.754;2023-12-14T23:03:40;-18373.00;;;2.99;100.00
28606;BME280;46498;49.968;7.754;2023-12-14T23:08:40;-18375.00;;;3.05;100.00
28606;BME280;46498;49.968;7.754;2023-12-14T23:13:41;-18374.00;;;3.03;100.00
28606;BME280;46498;49.968;7.754;2023-12-14T23:18:42;-18373.00;;;3.01;100.00
28606;BME280;46498;49.968;7.754;2023-12-14T23:23:43;-18373.00;;;2.99;100.00
28606;BME280;46498;49.968;7.754;2023-12-14T23:28:44;-18375.00;;;3.05;100.00
28606;BME280;46498;49.968;7.754;2023-12-14T23:33:45;-18374.00;;;3.03;100.00
28606;BME280;46498;49.968;7.754;2023-12-14T23:38:46;-18370.00;;;2.91;100.00
28606;BME280;46498;49.968;7.754;2023-12-14T23:43:48;-18368.00;;;2.84;100.00
28606;BME280;46498;49.968;7.754;2023-12-14T23:48:49;-18369.00;;;2.86;100.00
28606;BME280;46498;49.968;7.754;2023-12-14T23:53:50;-18369.00;;;2.86;100.00
28606;BME280;46498;49.968;7.754;2023-12-14T23:58:52;-18371.00;;;2.92;100.00
